Latest Weather Observations for Rosslyn Bay Harbour

IDQ60801

Issued at 10:02 pm EST Sunday 4 December 2016 (issued every 30 minutes, with the page automatically refreshed every 10 minutes)

About weather observations | Map of weather stations | Latest weather observations for QLD | Other Formats
Station Details ID: 033208 Name: ROSSLYN BAY NTC AWS Lat: -23.16 Lon: 150.79 Height: 0.0 m
Data from the previous 72 hours. | See also: Recent months for locations in Queensland
Date/Time
EST
Temp
°C
App
Temp
°C
Dew
Point
°C
Rel
Hum
%
Delta-T
°C
Wind Press
QNH
hPa
Press
MSL
hPa
Rain since
9am
mm
Dir  Spd
km/h
Gust
km/h
Spd
kts
Gust
kts
04/10:00pm 26.2 - - - - NNE 19 24 10 13 1014.7 1014.7 -
04/09:30pm 26.4 - - - - NNE 19 24 10 13 1014.6 1014.6 -
04/09:00pm 26.5 - - - - NNE 19 26 10 14 1014.4 1014.4 -
04/08:30pm 26.5 - - - - NNE 20 28 11 15 1014.1 1014.1 -
04/08:00pm 26.5 - - - - NNE 22 32 12 17 1013.9 1013.9 -
04/07:30pm 26.6 - - - - NNE 22 33 12 18 1013.5 1013.5 -
04/07:00pm 26.5 - - - - NNE 22 33 12 18 1013.1 1013.1 -
04/06:30pm 26.6 - - - - NNE 22 33 12 18 1012.8 1012.8 -
04/06:00pm 26.7 - - - - NE 22 35 12 19 1012.6 1012.6 -
04/05:30pm 26.9 - - - - NE 24 35 13 19 1012.4 1012.4 -
04/05:00pm 26.7 - - - - NE 30 37 16 20 1012.2 1012.2 -
04/04:30pm 26.8 - - - - NE 30 39 16 21 1012.1 1012.1 -
04/04:00pm 26.8 - - - - NE 28 35 15 19 1012.2 1012.2 -
04/03:30pm 26.9 - - - - NE 24 35 13 19 1012.2 1012.2 -
04/03:00pm 27.1 - - - - NE 26 35 14 19 1012.3 1012.3 -
04/02:30pm 26.8 - - - - NE 22 33 12 18 1012.7 1012.7 -
04/02:00pm 26.9 - - - - NE 22 32 12 17 1013.0 1013.0 -
04/01:30pm 27.1 - - - - NE 19 32 10 17 1013.5 1013.5 -
04/01:00pm 26.9 - - - - NE 22 28 12 15 1013.7 1013.7 -
04/12:30pm 26.9 - - - - NE 17 28 9 15 1014.2 1014.2 -
04/12:00pm 27.1 - - - - NE 20 28 11 15 1014.7 1014.7 -
04/11:30am 26.9 - - - - NE 20 28 11 15 1015.2 1015.2 -
04/11:00am 26.7 - - - - NE 20 28 11 15 1015.4 1015.4 -
04/10:30am 26.8 - - - - NE 22 28 12 15 1015.7 1015.7 -
04/10:00am 26.7 - - - - NE 20 28 11 15 1015.9 1015.9 -
04/09:30am 26.6 - - - - NE 19 26 10 14 1015.9 1015.9 -
04/09:00am 26.4 - - - - NE 15 20 8 11 1016.1 1016.1 -
04/08:30am 26.6 - - - - NNE 11 17 6 9 1015.8 1015.8 -
04/08:00am 26.4 - - - - N 11 17 6 9 1015.8 1015.8 -
04/07:30am 26.5 - - - - N 9 15 5 8 1015.7 1015.7 -
04/07:00am 25.8 - - - - NNW 9 13 5 7 1015.2 1015.2 -
04/06:30am 26.3 - - - - N 15 20 8 11 1014.8 1014.8 -
04/06:00am 26.1 - - - - NNE 17 22 9 12 1014.4 1014.4 -
04/05:30am 25.9 - - - - NNE 19 26 10 14 1014.2 1014.2 -
04/05:00am 25.9 - - - - NNE 19 30 10 16 1013.8 1013.8 -
04/04:30am 25.9 - - - - NNE 24 33 13 18 1013.4 1013.4 -
04/04:00am 26.1 - - - - ENE 20 30 11 16 1013.8 1013.8 -
04/03:30am 26.0 - - - - ENE 20 37 11 20 1014.0 1014.0 -
04/03:00am 25.9 - - - - SE 9 26 5 14 1014.5 1014.5 -
04/02:30am 26.0 - - - - W 7 24 4 13 1015.3 1015.3 -
04/02:00am 26.1 - - - - SSW 9 30 5 16 1016.0 1016.0 -
04/01:30am 26.2 - - - - SSW 9 22 5 12 1016.5 1016.5 -
04/01:00am 26.2 - - - - SSW 7 22 4 12 1016.6 1016.6 -
04/12:45am 26.2 - - - - ESE 11 24 6 13 1016.7 1016.7 -
04/12:30am 26.2 - - - - NNE 17 24 9 13 1014.6 1014.6 -
04/12:00am 26.3 - - - - NNE 22 32 12 17 1014.3 1014.3 -
 
Date/Time
EST
Temp
°C
App
Temp
°C
Dew
Point
°C
Rel
Hum
%
Delta-T
°C
Wind Press
QNH
hPa
Press
MSL
hPa
Rain since
9am
mm
Dir  Spd
km/h
Gust
km/h
Spd
kts
Gust
kts
03/11:30pm 26.3 - - - - NNE 20 28 11 15 1014.7 1014.7 -
03/11:00pm 26.3 - - - - NNE 24 32 13 17 1014.6 1014.6 -
03/10:30pm 26.5 - - - - NNE 24 32 13 17 1014.8 1014.8 -
03/10:00pm 26.2 - - - - NNE 24 30 13 16 1014.5 1014.5 -
03/09:30pm 26.4 - - - - NNE 24 32 13 17 1013.9 1013.9 -
03/09:00pm 26.4 - - - - NNE 24 33 13 18 1013.6 1013.6 -
03/08:30pm 26.6 - - - - NNE 24 33 13 18 1013.3 1013.3 -
03/08:00pm 26.7 - - - - NNE 26 39 14 21 1012.9 1012.9 -
03/07:30pm 26.6 - - - - NNE 26 39 14 21 1012.7 1012.7 -
03/07:00pm 26.7 - - - - NNE 28 39 15 21 1012.6 1012.6 -
03/06:30pm 26.6 - - - - NNE 26 37 14 20 1012.6 1012.6 -
03/06:00pm 26.8 - - - - NNE 24 37 13 20 1012.2 1012.2 -
03/05:30pm 26.9 - - - - NNE 26 39 14 21 1012.0 1012.0 -
03/05:00pm 27.0 - - - - NNE 24 37 13 20 1011.9 1011.9 -
03/04:30pm 26.8 - - - - NE 28 41 15 22 1011.8 1011.8 -
03/04:00pm 26.8 - - - - NE 33 43 18 23 1011.7 1011.7 -
03/03:30pm 26.8 - - - - NE 26 37 14 20 1011.8 1011.8 -
03/03:00pm 26.8 - - - - NE 30 37 16 20 1012.0 1012.0 -
03/02:30pm 26.8 - - - - NE 28 35 15 19 1012.4 1012.4 -
03/02:00pm 26.9 - - - - NE 26 35 14 19 1012.6 1012.6 -
03/01:30pm 26.8 - - - - NE 28 35 15 19 1012.9 1012.9 -
03/01:00pm 27.0 - - - - NE 20 30 11 16 1013.4 1013.4 -
03/12:30pm 27.0 - - - - NE 22 30 12 16 1013.5 1013.5 -
03/12:00pm 26.9 - - - - NE 19 28 10 15 1013.9 1013.9 -
03/11:30am 27.0 - - - - NE 19 26 10 14 1014.1 1014.1 -
03/11:00am 26.8 - - - - NE 20 26 11 14 1014.3 1014.3 -
03/10:30am 26.6 - - - - NE 20 26 11 14 1014.4 1014.4 -
03/10:00am 26.5 - - - - NE 19 22 10 12 1014.7 1014.7 -
03/09:30am 26.7 - - - - NE 11 15 6 8 1015.0 1015.0 -
03/09:00am 26.5 - - - - NNE 9 15 5 8 1015.1 1015.1 -
03/08:30am 26.4 - - - - NE 7 13 4 7 1015.2 1015.2 -
03/08:00am 26.2 - - - - NNE 4 7 2 4 1015.1 1015.1 -
03/07:30am 26.4 - - - - NNW 2 6 1 3 1014.8 1014.8 -
03/07:00am 25.4 - - - - W 4 7 2 4 1014.4 1014.4 -
03/06:30am 25.2 - - - - NW 6 9 3 5 1013.9 1013.9 -
03/06:00am 25.0 - - - - NNW 9 13 5 7 1013.6 1013.6 -
03/05:30am 25.3 - - - - N 11 17 6 9 1012.8 1012.8 -
03/05:00am 25.1 - - - - N 7 11 4 6 1012.6 1012.6 -
03/04:30am 24.9 - - - - NNW 11 13 6 7 1012.2 1012.2 -
03/04:00am 25.7 - - - - N 15 22 8 12 1011.8 1011.8 -
03/03:30am 25.6 - - - - N 17 24 9 13 1011.5 1011.5 -
03/03:00am 25.6 - - - - N 15 20 8 11 1011.3 1011.3 -
03/02:30am 25.7 - - - - N 15 22 8 12 1011.3 1011.3 -
03/02:00am 25.5 - - - - N 15 22 8 12 1011.5 1011.5 -
03/01:30am 25.5 - - - - NNE 19 26 10 14 1011.5 1011.5 -
03/01:00am 25.7 - - - - N 17 22 9 12 1011.6 1011.6 -
03/12:30am 25.6 - - - - N 15 20 8 11 1011.9 1011.9 -
03/12:00am 25.7 - - - - N 20 28 11 15 1012.1 1012.1 -
 
Date/Time
EST
Temp
°C
App
Temp
°C
Dew
Point
°C
Rel
Hum
%
Delta-T
°C
Wind Press
QNH
hPa
Press
MSL
hPa
Rain since
9am
mm
Dir  Spd
km/h
Gust
km/h
Spd
kts
Gust
kts
02/11:30pm 25.5 - - - - N 22 30 12 16 1012.3 1012.3 -
02/11:00pm 25.6 - - - - N 17 26 9 14 1012.5 1012.5 -
02/10:30pm 25.7 - - - - N 15 22 8 12 1012.8 1012.8 -
02/10:00pm 25.9 - - - - N 17 30 9 16 1012.8 1012.8 -
02/09:30pm 26.2 - - - - NNE 28 35 15 19 1012.5 1012.5 -
02/09:00pm 26.4 - - - - NNE 30 41 16 22 1012.1 1012.1 -
02/08:30pm 26.6 - - - - NNE 28 39 15 21 1011.6 1011.6 -
02/08:00pm 26.8 - - - - NNE 28 37 15 20 1011.5 1011.5 -
02/07:30pm 26.9 - - - - NNE 30 39 16 21 1011.3 1011.3 -
02/07:00pm 27.0 - - - - NNE 30 39 16 21 1011.0 1011.0 -
02/06:30pm 27.0 - - - - NNE 28 39 15 21 1010.5 1010.5 -
02/06:00pm 27.0 - - - - NNE 30 41 16 22 1010.0 1010.0 -
02/05:30pm 27.1 - - - - NNE 30 44 16 24 1009.8 1009.8 -
02/05:00pm 27.1 - - - - NNE 33 44 18 24 1009.5 1009.5 -
02/04:30pm 27.1 - - - - NNE 32 43 17 23 1009.4 1009.4 -
02/04:00pm 27.1 - - - - NNE 35 46 19 25 1009.3 1009.3 -
02/03:30pm 27.1 - - - - NE 28 43 15 23 1009.6 1009.6 -
02/03:00pm 26.9 - - - - NE 28 44 15 24 1009.9 1009.9 -
02/02:30pm 27.0 - - - - NE 28 41 15 22 1010.0 1010.0 -
02/02:00pm 26.9 - - - - NE 26 39 14 21 1010.2 1010.2 -
02/01:30pm 26.9 - - - - NNE 28 39 15 21 1010.6 1010.6 -
02/01:00pm 26.8 - - - - NE 24 33 13 18 1011.1 1011.1 -
02/12:30pm 26.7 - - - - NE 22 33 12 18 1011.6 1011.6 -
02/12:00pm 26.6 - - - - NE 22 30 12 16 1012.0 1012.0 -
02/11:30am 26.8 - - - - NE 20 32 11 17 1012.3 1012.3 -
02/11:00am 26.6 - - - - NE 22 32 12 17 1012.6 1012.6 -
02/10:30am 26.5 - - - - NE 26 30 14 16 1012.8 1012.8 -
02/10:00am 26.4 - - - - NE 20 28 11 15 1013.1 1013.1 -
02/09:30am 26.4 - - - - NE 17 26 9 14 1013.3 1013.3 -
02/09:00am 26.5 - - - - NE 15 24 8 13 1013.4 1013.4 -
02/08:30am 26.3 - - - - NNE 15 20 8 11 1013.3 1013.3 -
02/08:00am 25.9 - - - - NNE 13 17 7 9 1013.3 1013.3 -
02/07:30am 25.9 - - - - N 9 15 5 8 1013.3 1013.3 -
02/07:00am 25.0 - - - - NNW 11 13 6 7 1013.1 1013.1 -
02/06:30am 25.1 - - - - N 9 13 5 7 1012.8 1012.8 -
02/06:00am 24.9 - - - - N 9 13 5 7 1012.4 1012.4 -
02/05:30am 24.8 - - - - N 7 11 4 6 1011.9 1011.9 -
02/05:00am 24.7 - - - - N 7 11 4 6 1011.4 1011.4 -
02/04:30am 24.7 - - - - N 9 13 5 7 1011.2 1011.2 -
02/04:00am 24.5 - - - - N 7 13 4 7 1011.0 1011.0 -
02/03:30am 24.6 - - - - NNE 7 11 4 6 1010.8 1010.8 -
02/03:00am 24.6 - - - - NNW 9 15 5 8 1010.2 1010.2 -
02/02:30am 25.0 - - - - N 11 19 6 10 1009.9 1009.9 -
02/02:00am 25.3 - - - - NNE 17 22 9 12 1010.0 1010.0 -
02/01:30am 25.1 - - - - NNE 11 19 6 10 1009.9 1009.9 -
02/01:00am 24.6 - - - - NNE 11 15 6 8 1010.1 1010.1 -
02/12:30am 24.4 - - - - NNW 11 15 6 8 1010.2 1010.2 -
02/12:00am 24.7 - - - - NNW 13 19 7 10 1010.2 1010.2 -
 
Date/Time
EST
Temp
°C
App
Temp
°C
Dew
Point
°C
Rel
Hum
%
Delta-T
°C
Wind Press
QNH
hPa
Press
MSL
hPa
Rain since
9am
mm
Dir  Spd
km/h
Gust
km/h
Spd
kts
Gust
kts
01/11:30pm 24.6 - - - - NNW 15 19 8 10 1010.5 1010.5 -
01/11:00pm 25.1 - - - - N 15 20 8 11 1010.5 1010.5 -
01/10:30pm 25.4 - - - - N 15 24 8 13 1010.5 1010.5 -

Other Formats:

Comma delimited format used in spreadsheet applications
http://www.bom.gov.au/fwo/IDQ60801/IDQ60801.95298.axf

JavaScript Object Notation format (JSON) in row-major order
http://www.bom.gov.au/fwo/IDQ60801/IDQ60801.95298.json